createdAt,value
2022-09-04T00:02:40.359Z,15.69
2022-09-04T00:05:36.618Z,15.69
2022-09-04T00:08:43.319Z,15.67
2022-09-04T00:11:48.201Z,15.67
2022-09-04T00:14:47.400Z,15.69
2022-09-04T00:17:46.362Z,15.71
2022-09-04T00:20:47.859Z,15.72
2022-09-04T00:23:46.607Z,15.73
2022-09-04T00:26:50.754Z,15.75
2022-09-04T00:29:50.155Z,15.74
2022-09-04T00:32:46.916Z,15.73
2022-09-04T00:35:45.282Z,15.73
2022-09-04T00:38:44.845Z,15.73
2022-09-04T00:41:47.573Z,15.75
2022-09-04T00:44:58.446Z,15.75
2022-09-04T00:48:17.493Z,15.72
2022-09-04T00:51:26.128Z,15.71
2022-09-04T00:54:42.327Z,15.69
2022-09-04T00:58:16.758Z,15.68
2022-09-04T01:01:13.113Z,15.67
2022-09-04T01:04:29.469Z,15.65
2022-09-04T01:07:40.363Z,15.64
2022-09-04T01:10:52.261Z,15.63
2022-09-04T01:13:48.767Z,15.60
2022-09-04T01:16:48.475Z,15.59
2022-09-04T01:19:53.954Z,15.59
2022-09-04T01:23:09.537Z,15.61
2022-09-04T01:26:11.708Z,15.59
2022-09-04T01:29:15.517Z,15.60
2022-09-04T01:32:14.101Z,15.60
2022-09-04T01:35:16.581Z,15.60
2022-09-04T01:38:18.236Z,15.60
2022-09-04T01:41:17.439Z,15.60
2022-09-04T01:44:11.714Z,15.59
2022-09-04T01:47:17.632Z,15.58
2022-09-04T01:50:13.740Z,15.58
2022-09-04T01:53:13.621Z,15.58
2022-09-04T01:56:14.665Z,15.59
2022-09-04T01:59:13.454Z,15.59
2022-09-04T02:02:16.977Z,15.60
2022-09-04T02:05:20.046Z,15.60
2022-09-04T02:08:31.289Z,15.59
2022-09-04T02:11:27.823Z,15.59
2022-09-04T02:14:36.060Z,15.58
2022-09-04T02:17:40.195Z,15.57
2022-09-04T02:20:33.714Z,15.57
2022-09-04T02:23:36.597Z,15.57
2022-09-04T02:26:32.201Z,15.56
2022-09-04T02:29:34.125Z,15.57
2022-09-04T02:32:33.134Z,15.57
2022-09-04T02:35:32.921Z,15.57
2022-09-04T02:38:34.160Z,15.55
2022-09-04T02:41:33.246Z,15.55
2022-09-04T02:44:39.338Z,15.54
2022-09-04T02:47:38.164Z,15.54
2022-09-04T02:50:48.222Z,15.54
2022-09-04T02:53:51.891Z,15.53
2022-09-04T02:56:59.076Z,15.51
2022-09-04T03:00:02.650Z,15.52
2022-09-04T03:03:02.323Z,15.51
2022-09-04T03:06:02.744Z,15.51
2022-09-04T03:09:00.998Z,15.51
2022-09-04T03:12:00.401Z,15.51
2022-09-04T03:15:00.014Z,15.52
2022-09-04T03:18:00.644Z,15.51
2022-09-04T03:20:59.644Z,15.51
2022-09-04T03:23:57.641Z,15.51
2022-09-04T03:26:53.914Z,15.50
2022-09-04T03:29:57.239Z,15.46
2022-09-04T03:32:57.020Z,15.43
2022-09-04T03:36:00.350Z,15.42
2022-09-04T03:39:03.099Z,15.41
2022-09-04T03:42:10.632Z,15.41
2022-09-04T03:45:15.946Z,15.41
2022-09-04T03:48:21.726Z,15.40
2022-09-04T03:51:26.248Z,15.41
2022-09-04T03:54:39.378Z,15.41
2022-09-04T03:57:50.419Z,15.42
2022-09-04T04:00:57.436Z,15.42
2022-09-04T04:04:09.539Z,15.42
2022-09-04T04:07:10.451Z,15.43
2022-09-04T04:10:20.875Z,15.45
2022-09-04T04:13:44.192Z,15.46
2022-09-04T04:16:55.861Z,15.48
2022-09-04T04:20:06.004Z,15.48
2022-09-04T04:23:31.367Z,15.51
2022-09-04T04:26:41.011Z,15.52
2022-09-04T04:29:53.706Z,15.53
2022-09-04T04:33:27.131Z,15.54
2022-09-04T04:36:31.657Z,15.55
2022-09-04T04:39:37.238Z,15.58
2022-09-04T04:42:37.220Z,15.58
2022-09-04T04:45:52.195Z,15.61
2022-09-04T04:49:10.639Z,15.63
2022-09-04T04:52:20.109Z,15.63
2022-09-04T04:55:24.610Z,15.68
2022-09-04T04:58:42.447Z,15.70
2022-09-04T05:01:50.574Z,15.73
2022-09-04T05:04:52.927Z,15.75
2022-09-04T05:08:05.082Z,15.77
2022-09-04T05:11:08.326Z,15.78
2022-09-04T05:14:15.514Z,15.79
2022-09-04T05:17:18.804Z,15.81
2022-09-04T05:20:30.011Z,15.82
2022-09-04T05:23:33.795Z,15.86
2022-09-04T05:26:38.124Z,15.88
2022-09-04T05:29:43.881Z,15.89
2022-09-04T05:32:40.676Z,15.91
2022-09-04T05:35:42.271Z,15.91
2022-09-04T05:38:40.651Z,15.93
2022-09-04T05:41:48.247Z,15.94
2022-09-04T05:44:49.383Z,15.98
2022-09-04T05:47:54.430Z,16.01
2022-09-04T05:50:57.302Z,16.05
2022-09-04T05:54:34.401Z,16.04
2022-09-04T05:57:38.108Z,16.07
2022-09-04T06:00:40.994Z,16.08
2022-09-04T06:03:52.421Z,16.12
2022-09-04T06:06:49.810Z,16.17
2022-09-04T06:10:00.525Z,16.21
2022-09-04T06:13:28.998Z,16.26
2022-09-04T06:16:45.319Z,16.35
2022-09-04T06:19:58.317Z,16.40
2022-09-04T06:23:05.300Z,16.45
2022-09-04T06:26:23.136Z,16.50
2022-09-04T06:29:32.376Z,16.54
2022-09-04T06:32:57.379Z,16.57
2022-09-04T06:36:05.790Z,16.63
2022-09-04T06:39:13.559Z,16.67
2022-09-04T06:42:21.858Z,16.74
2022-09-04T06:45:27.561Z,16.79
2022-09-04T06:48:30.240Z,16.84
2022-09-04T06:51:36.811Z,16.90
2022-09-04T06:54:39.497Z,16.93
2022-09-04T06:57:53.645Z,16.95
2022-09-04T07:00:54.311Z,16.98
2022-09-04T07:04:11.296Z,17.00
2022-09-04T07:07:13.360Z,17.01
2022-09-04T07:10:10.660Z,17.05
2022-09-04T07:13:42.071Z,17.05
2022-09-04T07:16:48.239Z,17.06
2022-09-04T07:20:14.815Z,17.09
2022-09-04T07:23:31.283Z,17.12
2022-09-04T07:26:33.964Z,17.15
2022-09-04T07:29:31.091Z,17.20
2022-09-04T07:32:32.566Z,17.26
2022-09-04T07:35:32.383Z,17.35
2022-09-04T07:38:31.010Z,17.44
2022-09-04T07:41:31.529Z,17.52
2022-09-04T07:44:32.304Z,17.61
2022-09-04T07:47:34.562Z,17.71
2022-09-04T07:50:33.123Z,17.82
2022-09-04T07:53:41.917Z,17.93
2022-09-04T07:56:54.162Z,18.05
2022-09-04T08:00:06.288Z,18.14
2022-09-04T08:03:25.035Z,18.23
2022-09-04T08:06:23.576Z,18.30
2022-09-04T08:09:36.489Z,18.40
2022-09-04T08:12:56.783Z,18.53
2022-09-04T08:15:58.306Z,18.63
2022-09-04T08:19:09.317Z,18.73
2022-09-04T08:22:04.170Z,18.82
2022-09-04T08:25:18.047Z,18.89
2022-09-04T08:28:24.877Z,18.99
2022-09-04T08:31:29.547Z,19.10
2022-09-04T08:35:05.731Z,19.18
2022-09-04T08:38:43.024Z,19.30
2022-09-04T08:42:11.099Z,19.45
2022-09-04T08:45:42.112Z,19.61
2022-09-04T08:49:09.762Z,19.76
2022-09-04T08:52:48.025Z,19.91
2022-09-04T08:55:57.466Z,20.05
2022-09-04T08:59:36.401Z,20.17
2022-09-04T09:02:58.191Z,20.33
2022-09-04T09:09:47.725Z,20.57
2022-09-04T09:13:09.046Z,20.69
2022-09-04T09:16:20.575Z,20.83
2022-09-04T09:19:23.380Z,21.01
2022-09-04T09:22:39.411Z,21.14
2022-09-04T09:25:46.395Z,21.31
2022-09-04T09:29:08.332Z,21.44
2022-09-04T09:32:33.537Z,21.57
2022-09-04T09:35:58.225Z,21.59
2022-09-04T09:39:34.497Z,21.76
2022-09-04T09:42:49.607Z,21.98
2022-09-04T09:46:02.411Z,22.17
2022-09-04T09:49:25.862Z,22.30
2022-09-04T09:53:01.086Z,22.33
2022-09-04T09:56:28.380Z,22.42
2022-09-04T10:00:05.279Z,22.49
2022-09-04T10:03:33.323Z,22.44
2022-09-04T10:07:00.993Z,22.38
2022-09-04T10:13:20.949Z,22.38
2022-09-04T10:16:55.132Z,22.35
2022-09-04T10:20:19.168Z,22.26
2022-09-04T10:23:38.191Z,22.23
2022-09-04T10:26:56.003Z,22.22
2022-09-04T10:30:05.031Z,22.20
2022-09-04T10:33:20.414Z,22.20
2022-09-04T10:36:31.287Z,22.17
2022-09-04T10:39:53.697Z,22.17
2022-09-04T10:43:00.784Z,22.18
2022-09-04T10:46:02.519Z,22.17
2022-09-04T10:49:17.036Z,22.22
2022-09-04T10:53:01.526Z,22.27
2022-09-04T10:56:23.771Z,22.33
2022-09-04T10:59:40.376Z,22.36
2022-09-04T11:03:03.621Z,22.37
2022-09-04T11:06:18.817Z,22.36
2022-09-04T11:09:53.252Z,22.42
2022-09-04T11:13:32.752Z,22.49
2022-09-04T11:17:06.563Z,22.56
2022-09-04T11:20:54.915Z,22.61
2022-09-04T11:24:33.642Z,22.70
2022-09-04T11:27:52.510Z,22.77
2022-09-04T11:31:03.581Z,22.68
2022-09-04T11:34:33.501Z,22.62
2022-09-04T11:38:01.783Z,22.67
2022-09-04T11:41:47.541Z,22.61
2022-09-04T11:45:16.982Z,22.55
2022-09-04T11:48:56.528Z,22.51
2022-09-04T11:52:10.445Z,22.43
2022-09-04T11:55:25.272Z,22.40
2022-09-04T11:58:51.230Z,22.38
2022-09-04T12:02:01.871Z,22.22
2022-09-04T12:05:20.764Z,22.10
2022-09-04T12:08:37.818Z,21.97
2022-09-04T12:11:57.600Z,21.74
2022-09-04T12:15:08.611Z,21.52
2022-09-04T12:18:55.127Z,21.46
2022-09-04T12:22:21.312Z,21.40
2022-09-04T12:25:33.007Z,21.39
2022-09-04T12:29:06.820Z,21.33
2022-09-04T12:32:36.129Z,21.29
2022-09-04T12:35:55.395Z,21.34
2022-09-04T12:39:18.965Z,21.44
2022-09-04T12:42:18.364Z,21.54
2022-09-04T12:45:28.470Z,21.56
2022-09-04T12:48:36.091Z,21.57
2022-09-04T12:51:38.226Z,21.62
2022-09-04T12:54:40.086Z,21.66
2022-09-04T12:57:36.541Z,21.72
2022-09-04T13:00:40.764Z,21.77
2022-09-04T13:03:50.632Z,21.85
2022-09-04T13:06:54.364Z,21.89
2022-09-04T13:09:55.202Z,21.91
2022-09-04T13:12:56.246Z,21.90
2022-09-04T13:16:00.548Z,21.88
2022-09-04T13:19:09.184Z,21.83
2022-09-04T13:22:12.660Z,21.76
2022-09-04T13:25:14.763Z,21.77
2022-09-04T13:28:17.282Z,21.79
2022-09-04T13:31:38.817Z,21.80
2022-09-04T13:34:40.825Z,21.81
2022-09-04T13:37:45.554Z,21.82
2022-09-04T13:41:00.520Z,21.83
2022-09-04T13:44:10.309Z,21.81
2022-09-04T13:47:09.401Z,21.85
2022-09-04T13:50:10.218Z,21.83
2022-09-04T13:53:11.658Z,21.82
2022-09-04T13:56:09.995Z,21.84
2022-09-04T13:59:08.831Z,21.77
2022-09-04T14:02:08.488Z,21.77
2022-09-04T14:05:06.001Z,21.78
2022-09-04T14:08:06.897Z,21.82
2022-09-04T14:11:37.782Z,21.82
2022-09-04T14:15:14.666Z,21.85
2022-09-04T14:18:21.016Z,21.87
2022-09-04T14:21:24.739Z,21.84
2022-09-04T14:24:25.968Z,21.80
2022-09-04T14:27:28.434Z,21.74
2022-09-04T14:30:23.248Z,21.71
2022-09-04T14:33:28.989Z,21.71
2022-09-04T14:36:39.372Z,21.70
2022-09-04T14:39:34.513Z,21.69
2022-09-04T14:42:45.968Z,21.69
2022-09-04T14:46:04.928Z,21.66
2022-09-04T14:49:06.273Z,21.65
2022-09-04T14:52:03.268Z,21.51
2022-09-04T14:54:58.979Z,21.46
2022-09-04T14:57:56.305Z,21.43
2022-09-04T15:01:03.022Z,21.45
2022-09-04T15:04:03.337Z,21.41
2022-09-04T15:07:11.432Z,21.36
2022-09-04T15:10:20.303Z,21.35
2022-09-04T15:13:48.864Z,21.32
2022-09-04T15:16:54.628Z,21.25
2022-09-04T15:19:51.599Z,21.25
2022-09-04T15:22:48.047Z,21.21
2022-09-04T15:25:59.461Z,21.16
2022-09-04T15:28:56.100Z,21.15
2022-09-04T15:32:00.949Z,21.14
2022-09-04T15:35:07.400Z,21.09
2022-09-04T15:38:17.949Z,20.98
2022-09-04T15:41:22.998Z,20.91
2022-09-04T15:44:24.676Z,20.81
2022-09-04T15:47:27.132Z,20.73
2022-09-04T15:50:25.818Z,20.66
2022-09-04T15:53:27.288Z,20.68
2022-09-04T15:56:37.432Z,20.68
2022-09-04T15:59:40.586Z,20.68
2022-09-04T16:05:41.791Z,20.61
2022-09-04T16:08:38.857Z,20.59
2022-09-04T16:11:35.888Z,20.60
2022-09-04T16:14:32.137Z,20.57
2022-09-04T16:17:29.151Z,20.54
2022-09-04T16:20:28.777Z,20.52
2022-09-04T16:23:30.025Z,20.49
2022-09-04T16:26:28.490Z,20.48
2022-09-04T16:29:29.008Z,20.47
2022-09-04T16:32:26.159Z,20.45
2022-09-04T16:35:23.517Z,20.43
2022-09-04T16:38:24.207Z,20.41
2022-09-04T16:41:25.893Z,20.37
2022-09-04T16:44:26.791Z,20.35
2022-09-04T16:47:26.290Z,20.30
2022-09-04T16:50:27.446Z,20.27
2022-09-04T16:53:27.682Z,20.22
2022-09-04T16:56:36.432Z,20.16
2022-09-04T16:59:39.764Z,20.12
2022-09-04T17:02:38.377Z,20.04
2022-09-04T17:05:40.531Z,19.99
2022-09-04T17:08:38.355Z,19.93
2022-09-04T17:11:39.765Z,19.90
2022-09-04T17:14:40.334Z,19.86
2022-09-04T17:17:35.613Z,19.79
2022-09-04T17:20:58.496Z,19.75
2022-09-04T17:28:55.744Z,19.68
2022-09-04T17:29:09.207Z,19.60
2022-09-04T17:30:37.395Z,19.50
2022-09-04T17:37:14.690Z,19.44
2022-09-04T17:40:39.387Z,19.40
2022-09-04T17:40:48.435Z,19.34
2022-09-04T17:43:36.935Z,19.32
2022-09-04T17:46:34.954Z,19.27
2022-09-04T17:49:34.486Z,19.24
2022-09-04T17:52:31.820Z,19.24
2022-09-04T17:55:25.767Z,19.22
2022-09-04T17:58:30.017Z,19.20
2022-09-04T18:01:30.659Z,19.18
2022-09-04T18:04:34.156Z,19.13
2022-09-04T18:08:08.326Z,19.11
2022-09-04T18:10:56.551Z,19.08
2022-09-04T18:14:02.514Z,19.02
2022-09-04T18:17:12.730Z,19.00
2022-09-04T18:20:16.229Z,19.00
2022-09-04T18:23:51.311Z,18.99
2022-09-04T18:26:51.905Z,18.95
2022-09-04T18:29:55.215Z,18.93
2022-09-04T18:37:07.721Z,18.87
2022-09-04T18:37:21.497Z,18.85
2022-09-04T18:39:49.778Z,18.81
2022-09-04T18:46:15.184Z,18.78
2022-09-04T18:50:31.291Z,18.79
2022-09-04T18:50:50.392Z,18.75
2022-09-04T18:52:45.706Z,18.72
2022-09-04T18:55:48.198Z,18.68
2022-09-04T18:58:52.915Z,18.65
2022-09-04T19:01:49.119Z,18.61
2022-09-04T19:04:51.882Z,18.58
2022-09-04T19:07:49.789Z,18.54
2022-09-04T19:10:48.960Z,18.48
2022-09-04T19:13:46.656Z,18.45
2022-09-04T19:16:44.058Z,18.39
2022-09-04T19:19:43.651Z,18.35
2022-09-04T19:22:41.408Z,18.28
2022-09-04T19:25:40.610Z,18.21
2022-09-04T19:28:52.363Z,18.15
2022-09-04T19:31:55.670Z,18.08
2022-09-04T19:34:59.304Z,18.00
2022-09-04T19:41:07.829Z,17.93
2022-09-04T19:46:02.226Z,17.79
2022-09-04T19:46:04.529Z,17.85
2022-09-04T19:48:01.529Z,17.72
2022-09-04T19:53:33.440Z,17.65
2022-09-04T19:54:13.729Z,17.57
2022-09-04T19:57:33.499Z,17.51
2022-09-04T20:00:42.559Z,17.44
2022-09-04T20:03:46.847Z,17.38
2022-09-04T20:06:47.585Z,17.31
2022-09-04T20:09:46.169Z,17.25
2022-09-04T20:12:50.874Z,17.19
2022-09-04T20:15:54.036Z,17.14
2022-09-04T20:18:50.283Z,17.08
2022-09-04T20:21:49.759Z,17.03
2022-09-04T20:25:01.858Z,16.96
2022-09-04T20:28:02.100Z,16.91
2022-09-04T20:31:36.712Z,16.84
2022-09-04T20:34:39.413Z,16.77
2022-09-04T20:37:43.732Z,16.74
2022-09-04T20:40:42.929Z,16.68
2022-09-04T20:43:50.118Z,16.63
2022-09-04T20:52:43.708Z,16.56
2022-09-04T20:53:06.107Z,16.51
2022-09-04T20:53:59.802Z,16.45
2022-09-04T20:59:13.449Z,16.40
2022-09-04T21:03:15.216Z,16.33
2022-09-04T21:03:37.370Z,16.26
2022-09-04T21:06:36.058Z,16.21
2022-09-04T21:09:56.467Z,16.16
2022-09-04T21:13:23.641Z,16.09
2022-09-04T21:16:20.948Z,16.04
2022-09-04T21:19:47.889Z,16.00
2022-09-04T21:23:05.727Z,15.93
2022-09-04T21:26:10.251Z,15.86
2022-09-04T21:29:17.843Z,15.80
2022-09-04T21:32:30.302Z,15.75
2022-09-04T21:35:26.486Z,15.68
2022-09-04T21:38:38.314Z,15.62
2022-09-04T21:41:48.232Z,15.58
2022-09-04T21:45:09.549Z,15.53
2022-09-04T21:48:23.788Z,15.46
2022-09-04T21:51:33.960Z,15.43
2022-09-04T21:57:59.035Z,15.37
2022-09-04T22:02:26.632Z,15.30
2022-09-04T22:02:42.951Z,15.23
2022-09-04T22:05:31.792Z,15.18
2022-09-04T22:13:26.210Z,15.15
2022-09-04T22:13:43.096Z,15.10
2022-09-04T22:15:17.959Z,15.05
2022-09-04T22:18:41.668Z,15.00
2022-09-04T22:21:49.508Z,14.96
2022-09-04T22:25:02.209Z,14.92
2022-09-04T22:28:08.985Z,14.87
2022-09-04T22:31:29.699Z,14.81
2022-09-04T22:34:50.001Z,14.76
2022-09-04T22:38:16.440Z,14.71
2022-09-04T22:41:26.901Z,14.67
2022-09-04T22:44:32.043Z,14.64
2022-09-04T22:47:40.054Z,14.60
2022-09-04T22:50:50.765Z,14.57
2022-09-04T22:54:17.564Z,14.52
2022-09-04T22:57:14.267Z,14.49
2022-09-04T23:00:14.703Z,14.45
2022-09-04T23:03:27.202Z,14.43
2022-09-04T23:12:10.836Z,14.39
2022-09-04T23:13:48.524Z,14.35
2022-09-04T23:14:07.634Z,14.29
2022-09-04T23:17:19.703Z,14.25
2022-09-04T23:26:38.854Z,14.22
2022-09-04T23:26:47.727Z,14.18
2022-09-04T23:28:12.310Z,14.15
2022-09-04T23:31:37.466Z,14.12
2022-09-04T23:35:13.615Z,14.10
2022-09-04T23:38:55.935Z,14.06
2022-09-04T23:42:24.219Z,14.03
2022-09-04T23:46:01.135Z,13.98
2022-09-04T23:49:34.499Z,13.96
2022-09-04T23:53:00.460Z,13.93
2022-09-04T23:56:26.785Z,13.92
2022-09-04T23:59:48.078Z,13.89
